Ashfield, MA (01330)

5:06 AM EST on January 18, 2017 (GMT -0500)
Apple Valley | | Change Station
Active Advisory: Winter Weather Advisory Active Notice: Public Information Statement

Elev 1014 ft 42.56 °N, 72.82 °W | Updated 7 seconds ago

Overcast
Overcast
31.8 °F
Feels Like 32 °F
N
0.0
Wind Variable Wind from East
Gusts 0.0 mph

Today
High -- | Low -- °F
--% Chance of Precip.
Yesterday
High -- | Low -- °F
Precip. -- in
Pressure 29.96 in
Visibility 5.0 miles
Clouds Overcast 3100 ft
Windchill 32 °F
Dew Point 24 °F
Humidity 71%
Rainfall 0.00 in
Snow Depth Not available.
7:16 AM 4:47 PM
Waning Gibbous, 64% visible
METAR KAQW 180952Z AUTO 10012KT 5SM -SN BR OVC031 01/M01 A2994 RMK AO2 UPB17E19SNE17B19 SLP144 P0001 T00111011
Pressure 29.96 in
Visibility 5.0 miles
Clouds Overcast 3100 ft
Windchill 32 °F
Dew Point 24 °F
Humidity 71%
Rainfall 0.00 in
Snow Depth Not available.
7:16 AM 4:47 PM
Waning Gibbous, 64% visible
METAR KAQW 180952Z AUTO 10012KT 5SM -SN BR OVC031 01/M01 A2994 RMK AO2 UPB17E19SNE17B19 SLP144 P0001 T00111011

Get Your Daily Forecast Email!

Thanks for signing up!

Be on the lookout for a verification email in your inbox.

You'll start receiving the daily forecast at 8 AM.

×

10-Day Weather Forecast

Almanac

Astronomy

Jan. 18, 2017 Rise Set
Actual Time
Civil Twilight
Nautical Twilight
Astronomical Twilight
Moon
Length of Visible Light
Length of Day
Tomorrow will be .
, % of the Moon is Illuminated

Today's Extremes

State Highs State Lows

Community

WunderPhotos

Upload Photos

1,962,540 photos uploaded!

WunderBlog® & News

Nearby

Air Quality

  Air Quality AQ Index Pollutant
Not available.

Snow Depth

Station Depth Elevation

Earthquake Activity

City Distance Mag. Time & Date
Minimum magnitude displayed is 2.5.

Coastal Water Temperatures

Place Temperature

Stations

Nearby Weather Stations

Station Location Temp. Windchill Dew Point Humidity Wind Precip. Elev Updated Type
                   

Watches & Warnings

Winter Weather Advisory
Issued: 3:59 AM EST Jan. 18, 2017 – National Weather Service

... Winter Weather Advisory until 10 am EST this morning...

* locations... include the east slopes of the Berkshires as well as
northern Massachusetts.

* Hazard types... include snow and freezing rain.

* Accumulations... up to an inch of snow along with around a trace
of ice.

* Timing... till 10 am this morning.

* Impacts... wintry precipitation will likely result in hazardous
travel conditions on untreated roads... especially bridges... and
overpasses. Parking lots and sidewalks will become slippery as
well.

Precautionary/preparedness actions...

A Winter Weather Advisory means that periods of snow... sleet... or
freezing rain will cause travel difficulties. Be prepared for
slippery roads and limited visibilities... and use caution while
driving.